createdAt,value
2022-12-06T00:02:13.934Z,93.92
2022-12-06T00:04:40.981Z,93.69
2022-12-06T00:07:08.218Z,93.98
2022-12-06T00:09:35.174Z,94.50
2022-12-06T00:12:02.104Z,94.62
2022-12-06T00:14:29.129Z,94.20
2022-12-06T00:16:56.170Z,93.77
2022-12-06T00:19:24.067Z,94.61
2022-12-06T00:21:51.659Z,93.99
2022-12-06T00:24:21.848Z,94.16
2022-12-06T00:26:50.530Z,94.23
2022-12-06T00:29:20.877Z,94.22
2022-12-06T00:31:48.482Z,94.15
2022-12-06T00:34:15.871Z,93.92
2022-12-06T00:36:44.052Z,94.07
2022-12-06T00:39:14.415Z,93.74
2022-12-06T00:41:42.229Z,93.56
2022-12-06T00:44:10.528Z,93.19
2022-12-06T00:46:38.274Z,93.09
2022-12-06T00:49:07.990Z,93.18
2022-12-06T00:51:36.675Z,93.07
2022-12-06T00:54:04.010Z,93.52
2022-12-06T00:56:31.909Z,93.64
2022-12-06T00:58:58.932Z,93.46
2022-12-06T01:01:30.422Z,93.45
2022-12-06T01:04:00.114Z,93.72
2022-12-06T01:06:30.239Z,94.21
2022-12-06T01:09:00.866Z,94.85
2022-12-06T01:11:29.353Z,95.46
2022-12-06T01:13:56.925Z,95.71
2022-12-06T01:16:27.220Z,96.11
2022-12-06T01:18:57.022Z,96.40
2022-12-06T01:21:25.223Z,96.19
2022-12-06T01:23:54.599Z,96.17
2022-12-06T01:26:33.446Z,96.59
2022-12-06T01:29:01.614Z,96.29
2022-12-06T01:31:37.170Z,96.09
2022-12-06T01:34:06.353Z,95.90
2022-12-06T01:36:33.409Z,95.74
2022-12-06T01:39:01.993Z,95.92
2022-12-06T01:41:29.143Z,96.23
2022-12-06T01:43:57.089Z,96.31
2022-12-06T01:46:33.130Z,96.40
2022-12-06T01:49:18.571Z,96.27
2022-12-06T01:51:54.801Z,96.45
2022-12-06T01:54:23.802Z,96.71
2022-12-06T01:56:54.187Z,96.95
2022-12-06T01:59:22.172Z,97.08
2022-12-06T02:01:49.985Z,96.91
2022-12-06T02:04:19.242Z,97.28
2022-12-06T02:07:03.438Z,97.55
2022-12-06T02:09:47.763Z,97.80
2022-12-06T02:12:39.057Z,98.22
2022-12-06T02:15:28.858Z,98.79
2022-12-06T02:18:36.624Z,98.08
2022-12-06T02:21:58.113Z,98.13
2022-12-06T02:25:08.274Z,97.82
2022-12-06T02:27:52.488Z,97.47
2022-12-06T02:30:29.917Z,97.76
2022-12-06T02:33:06.040Z,97.75
2022-12-06T02:35:42.092Z,97.93
2022-12-06T02:38:17.839Z,98.50
2022-12-06T02:40:55.857Z,97.83
2022-12-06T02:43:27.812Z,97.99
2022-12-06T02:45:59.621Z,98.17
2022-12-06T02:48:27.198Z,98.19
2022-12-06T02:51:03.795Z,97.57
2022-12-06T02:53:34.748Z,97.82
2022-12-06T02:56:02.600Z,97.12
2022-12-06T02:58:35.909Z,97.60
2022-12-06T03:01:10.425Z,97.01
2022-12-06T03:03:55.631Z,96.88
2022-12-06T03:06:34.831Z,96.98
2022-12-06T03:09:24.950Z,97.26
2022-12-06T03:12:03.734Z,96.67
2022-12-06T03:14:39.594Z,96.85
2022-12-06T03:17:22.208Z,96.83
2022-12-06T03:19:56.274Z,96.64
2022-12-06T03:22:29.894Z,96.68
2022-12-06T03:24:59.015Z,96.36
2022-12-06T03:27:27.796Z,96.26
2022-12-06T03:29:58.445Z,97.09
2022-12-06T03:32:31.399Z,96.83
2022-12-06T03:35:02.355Z,96.67
2022-12-06T03:37:33.169Z,96.96
2022-12-06T03:40:10.456Z,96.96
2022-12-06T03:42:38.116Z,96.59
2022-12-06T03:45:06.139Z,96.89
2022-12-06T03:47:45.037Z,96.40
2022-12-06T03:50:19.668Z,96.40
2022-12-06T03:52:47.629Z,96.55
2022-12-06T03:55:14.859Z,95.58
2022-12-06T03:57:41.928Z,96.51
2022-12-06T04:00:09.875Z,96.20
2022-12-06T04:02:36.954Z,96.10
2022-12-06T04:05:04.233Z,95.23
2022-12-06T04:07:32.119Z,96.29
2022-12-06T04:10:05.071Z,96.54
2022-12-06T04:12:52.173Z,95.96
2022-12-06T04:15:20.975Z,95.97
2022-12-06T04:18:06.720Z,95.86
2022-12-06T04:20:53.920Z,95.83
2022-12-06T04:23:21.628Z,95.64
2022-12-06T04:25:48.858Z,95.74
2022-12-06T04:28:34.256Z,95.42
2022-12-06T04:31:22.249Z,95.24
2022-12-06T04:34:08.919Z,94.94
2022-12-06T04:36:55.403Z,95.62
2022-12-06T04:39:22.457Z,96.18
2022-12-06T04:42:08.379Z,96.29
2022-12-06T04:44:35.479Z,95.84
2022-12-06T04:47:03.081Z,95.87
2022-12-06T04:49:30.137Z,95.85
2022-12-06T04:51:57.084Z,95.93
2022-12-06T04:54:24.854Z,96.21
2022-12-06T04:56:52.896Z,95.77
2022-12-06T04:59:20.408Z,96.11
2022-12-06T05:01:47.420Z,96.87
2022-12-06T05:04:14.852Z,97.14
2022-12-06T05:06:41.784Z,96.79
2022-12-06T05:09:08.931Z,96.31
2022-12-06T05:11:36.297Z,96.39
2022-12-06T05:14:03.739Z,96.47
2022-12-06T05:16:30.779Z,96.09
2022-12-06T05:18:57.878Z,96.37
2022-12-06T05:21:26.307Z,95.56
2022-12-06T05:23:55.587Z,96.06
2022-12-06T05:26:27.981Z,96.15
2022-12-06T05:28:56.201Z,95.70
2022-12-06T05:31:24.282Z,95.67
2022-12-06T05:33:52.684Z,95.73
2022-12-06T05:36:24.958Z,95.30
2022-12-06T05:38:53.031Z,95.34
2022-12-06T05:41:22.213Z,95.15
2022-12-06T05:43:49.574Z,95.56
2022-12-06T05:46:16.596Z,95.39
2022-12-06T05:48:43.689Z,96.08
2022-12-06T05:51:10.820Z,96.19
2022-12-06T05:53:37.854Z,95.99
2022-12-06T05:56:10.546Z,96.86
2022-12-06T05:58:37.559Z,97.12
2022-12-06T06:01:06.357Z,97.21
2022-12-06T06:03:33.494Z,96.71
2022-12-06T06:06:02.011Z,96.84
2022-12-06T06:08:30.414Z,97.39
2022-12-06T06:10:59.486Z,96.93
2022-12-06T06:13:26.736Z,97.41
2022-12-06T06:15:53.751Z,96.83
2022-12-06T06:18:20.972Z,96.88
2022-12-06T06:20:57.314Z,96.33
2022-12-06T06:23:25.053Z,96.12
2022-12-06T06:25:52.102Z,96.50
2022-12-06T06:28:19.158Z,96.67
2022-12-06T06:30:46.717Z,97.00
2022-12-06T06:33:14.501Z,96.51
2022-12-06T06:35:42.165Z,97.39
2022-12-06T06:38:09.211Z,96.43
2022-12-06T06:40:36.240Z,96.75
2022-12-06T06:43:18.726Z,96.50
2022-12-06T06:46:03.031Z,96.68
2022-12-06T06:48:32.524Z,97.17
2022-12-06T06:51:07.331Z,96.64
2022-12-06T06:53:34.785Z,95.76
2022-12-06T06:56:02.876Z,96.32
2022-12-06T06:58:29.926Z,96.79
2022-12-06T07:01:01.982Z,96.59
2022-12-06T07:03:29.732Z,96.80
2022-12-06T07:06:01.596Z,95.91
2022-12-06T07:08:30.076Z,96.17
2022-12-06T07:10:57.934Z,96.66
2022-12-06T07:13:26.815Z,96.77
2022-12-06T07:15:53.998Z,96.84
2022-12-06T07:18:21.335Z,96.92
2022-12-06T07:20:49.508Z,97.08
2022-12-06T07:23:16.658Z,97.48
2022-12-06T07:25:43.603Z,97.13
2022-12-06T07:28:10.564Z,96.47
2022-12-06T07:30:37.588Z,96.07
2022-12-06T07:33:04.598Z,97.06
2022-12-06T07:35:55.388Z,97.24
2022-12-06T07:38:19.265Z,97.01
2022-12-06T07:43:52.117Z,97.27
2022-12-06T07:46:19.111Z,97.62
2022-12-06T07:48:46.000Z,97.19
2022-12-06T07:51:12.973Z,96.77
2022-12-06T07:53:39.991Z,97.05
2022-12-06T07:56:08.297Z,96.14
2022-12-06T07:58:35.276Z,96.60
2022-12-06T08:01:04.220Z,96.71
2022-12-06T08:03:31.439Z,96.29
2022-12-06T08:05:58.497Z,96.49
2022-12-06T08:08:28.842Z,96.46
2022-12-06T08:11:00.186Z,96.65
2022-12-06T08:13:27.758Z,96.07
2022-12-06T08:15:54.892Z,96.12
2022-12-06T08:18:22.338Z,95.78
2022-12-06T08:20:49.324Z,96.05
2022-12-06T08:23:16.341Z,96.61
2022-12-06T08:25:43.242Z,96.46
2022-12-06T08:28:10.230Z,96.08
2022-12-06T08:30:40.845Z,96.42
2022-12-06T08:33:07.784Z,95.58
2022-12-06T08:35:37.312Z,95.51
2022-12-06T08:38:04.309Z,95.03
2022-12-06T08:40:31.287Z,95.21
2022-12-06T08:42:58.231Z,94.92
2022-12-06T08:45:25.120Z,94.22
2022-12-06T08:47:52.093Z,94.47
2022-12-06T08:50:19.302Z,94.58
2022-12-06T08:52:46.223Z,94.32
2022-12-06T08:55:13.164Z,94.37
2022-12-06T08:57:40.075Z,94.50
2022-12-06T09:00:08.287Z,94.18
2022-12-06T09:02:35.376Z,94.27
2022-12-06T09:05:02.468Z,94.00
2022-12-06T09:07:29.367Z,93.84
2022-12-06T09:09:56.441Z,93.50
2022-12-06T09:12:24.053Z,93.33
2022-12-06T09:14:50.959Z,93.46
2022-12-06T09:17:17.904Z,93.62
2022-12-06T09:19:44.884Z,93.34
2022-12-06T09:22:11.786Z,93.46
2022-12-06T09:24:38.867Z,93.25
2022-12-06T09:27:05.773Z,93.01
2022-12-06T09:29:40.183Z,92.91
2022-12-06T09:32:07.649Z,93.05
2022-12-06T09:34:34.555Z,92.86
2022-12-06T09:37:12.183Z,92.65
2022-12-06T09:39:52.037Z,92.32
2022-12-06T09:42:21.626Z,92.61
2022-12-06T09:45:25.333Z,92.52
2022-12-06T09:48:37.047Z,92.37
2022-12-06T09:51:31.919Z,92.52
2022-12-06T09:54:34.051Z,91.94
2022-12-06T09:57:17.790Z,91.92
2022-12-06T09:59:56.494Z,91.53
2022-12-06T10:02:48.702Z,91.78
2022-12-06T10:05:27.716Z,92.00
2022-12-06T10:08:10.375Z,91.75
2022-12-06T10:11:08.132Z,91.46
2022-12-06T10:14:34.186Z,91.61
2022-12-06T10:17:09.737Z,91.88
2022-12-06T10:20:12.245Z,91.76
2022-12-06T10:23:12.682Z,91.56
2022-12-06T10:26:01.394Z,91.33
2022-12-06T10:28:34.484Z,92.08
2022-12-06T10:31:12.974Z,92.35
2022-12-06T10:33:51.845Z,92.44
2022-12-06T10:36:42.316Z,92.55
2022-12-06T10:39:20.748Z,93.28
2022-12-06T10:42:13.994Z,93.37
2022-12-06T10:44:57.626Z,93.52
2022-12-06T10:47:34.707Z,93.41
2022-12-06T10:50:31.042Z,95.00
2022-12-06T10:53:15.499Z,94.88
2022-12-06T10:55:59.546Z,94.81
2022-12-06T10:58:39.288Z,94.62
2022-12-06T11:01:16.929Z,94.85
2022-12-06T11:04:00.319Z,93.90
2022-12-06T11:06:54.661Z,94.31
2022-12-06T11:09:40.488Z,94.01
2022-12-06T11:12:25.372Z,94.44
2022-12-06T11:15:07.547Z,93.61
2022-12-06T11:17:39.496Z,94.02
2022-12-06T11:20:15.393Z,93.92
2022-12-06T11:22:51.558Z,94.02
2022-12-06T11:25:27.713Z,93.70
2022-12-06T11:28:13.584Z,91.09
2022-12-06T11:30:40.526Z,91.19
2022-12-06T11:33:10.276Z,91.65
2022-12-06T11:35:37.390Z,91.38
2022-12-06T11:38:07.463Z,91.08
2022-12-06T11:40:42.546Z,91.03
2022-12-06T11:43:18.930Z,90.39
2022-12-06T11:45:48.299Z,89.63
2022-12-06T11:48:22.085Z,90.05
2022-12-06T11:50:52.040Z,90.32
2022-12-06T11:53:46.236Z,91.30
2022-12-06T11:56:27.515Z,90.43
2022-12-06T11:59:08.888Z,91.10
2022-12-06T12:01:42.578Z,90.89
2022-12-06T12:04:35.085Z,91.11
2022-12-06T12:07:10.431Z,90.44
2022-12-06T12:09:54.105Z,90.63
2022-12-06T12:12:45.842Z,90.93
2022-12-06T12:15:19.838Z,90.57
2022-12-06T12:17:50.379Z,90.82
2022-12-06T12:20:34.145Z,90.55
2022-12-06T12:23:05.757Z,90.62
2022-12-06T12:25:35.353Z,91.48
2022-12-06T12:28:04.600Z,91.03
2022-12-06T12:30:37.670Z,90.23
2022-12-06T12:33:07.624Z,90.16
2022-12-06T12:35:40.973Z,90.47
2022-12-06T12:38:10.799Z,90.26
2022-12-06T12:40:46.831Z,90.52
2022-12-06T12:43:13.655Z,90.59
2022-12-06T12:46:08.023Z,91.14
2022-12-06T12:48:35.989Z,90.86
2022-12-06T12:51:20.392Z,90.59
2022-12-06T12:53:49.602Z,90.61
2022-12-06T12:56:19.400Z,91.05
2022-12-06T12:58:56.211Z,90.70
2022-12-06T13:01:30.969Z,90.73
2022-12-06T13:04:06.052Z,90.57
2022-12-06T13:07:10.308Z,90.85
2022-12-06T13:10:01.360Z,90.79
2022-12-06T13:12:54.267Z,90.81
2022-12-06T13:15:29.357Z,91.19
2022-12-06T13:18:01.179Z,91.07
2022-12-06T13:20:34.732Z,90.56
2022-12-06T13:23:06.482Z,91.02
2022-12-06T13:25:33.606Z,90.41
2022-12-06T13:28:05.764Z,90.41
2022-12-06T13:30:36.721Z,89.82
2022-12-06T13:33:26.011Z,90.13
2022-12-06T13:36:18.920Z,89.91
2022-12-06T13:38:45.999Z,90.45
2022-12-06T13:41:15.077Z,90.23
2022-12-06T13:43:49.910Z,90.39
2022-12-06T13:46:22.178Z,90.65
2022-12-06T13:48:52.593Z,90.80
2022-12-06T13:51:31.839Z,88.91
2022-12-06T13:54:18.958Z,89.25
2022-12-06T13:56:46.175Z,89.86
2022-12-06T13:59:13.212Z,89.79
2022-12-06T14:01:49.817Z,89.36
2022-12-06T14:09:40.055Z,90.48
2022-12-06T14:12:28.822Z,89.81
2022-12-06T14:15:07.017Z,90.14
2022-12-06T14:20:32.117Z,91.10
2022-12-06T14:22:59.292Z,90.84
2022-12-06T14:25:29.918Z,90.79
2022-12-06T14:28:06.714Z,91.93
2022-12-06T14:30:34.478Z,91.50
2022-12-06T14:33:01.915Z,92.16
2022-12-06T14:35:37.160Z,91.37
2022-12-06T14:38:26.794Z,91.87
2022-12-06T14:41:12.672Z,91.62
2022-12-06T14:43:42.307Z,91.92
2022-12-06T14:46:15.199Z,91.86
2022-12-06T14:49:02.768Z,91.87
2022-12-06T14:51:38.883Z,91.43
2022-12-06T14:54:35.371Z,91.62
2022-12-06T14:57:04.002Z,91.63
2022-12-06T15:00:13.552Z,92.11
2022-12-06T15:02:29.103Z,92.19
2022-12-06T15:04:56.347Z,92.50
2022-12-06T15:07:41.808Z,92.21
2022-12-06T15:10:32.898Z,92.62
2022-12-06T15:13:15.809Z,92.42
2022-12-06T15:15:46.321Z,92.36
2022-12-06T15:18:26.299Z,92.29
2022-12-06T15:20:54.398Z,92.10
2022-12-06T15:23:36.592Z,91.46
2022-12-06T15:26:05.364Z,92.34
2022-12-06T15:28:32.609Z,92.49
2022-12-06T15:30:59.809Z,92.68
2022-12-06T15:33:27.577Z,91.78
2022-12-06T15:35:54.772Z,92.17
2022-12-06T15:38:22.041Z,91.98
2022-12-06T15:40:51.087Z,91.76
2022-12-06T15:43:34.725Z,92.23
2022-12-06T15:46:03.764Z,91.78
2022-12-06T15:48:34.917Z,91.65
2022-12-06T15:51:01.962Z,91.92
2022-12-06T15:53:29.587Z,92.42
2022-12-06T15:55:57.306Z,91.50
2022-12-06T15:58:24.280Z,92.58
2022-12-06T16:00:51.304Z,92.59
2022-12-06T16:03:18.612Z,91.66
2022-12-06T16:05:45.844Z,91.31
2022-12-06T16:08:12.949Z,92.28
2022-12-06T16:11:10.398Z,92.08
2022-12-06T16:13:26.911Z,92.91
2022-12-06T16:15:53.992Z,93.34
2022-12-06T16:18:21.041Z,92.16
2022-12-06T16:20:48.186Z,92.19
2022-12-06T16:24:11.361Z,92.48
2022-12-06T16:26:28.706Z,92.62
2022-12-06T16:28:56.664Z,93.50
2022-12-06T16:31:23.803Z,92.72
2022-12-06T16:33:50.840Z,93.12
2022-12-06T16:36:28.867Z,93.32
2022-12-06T16:38:59.130Z,93.35
2022-12-06T16:41:28.902Z,93.55
2022-12-06T16:43:57.081Z,92.69
2022-12-06T16:46:35.880Z,93.11
2022-12-06T16:49:37.227Z,93.52
2022-12-06T16:51:53.253Z,93.12
2022-12-06T16:54:20.637Z,93.38
2022-12-06T16:56:47.618Z,93.34
2022-12-06T16:59:16.136Z,92.77
2022-12-06T17:01:55.280Z,93.65
2022-12-06T17:04:22.786Z,93.37
2022-12-06T17:06:50.069Z,93.17
2022-12-06T17:09:17.332Z,92.91
2022-12-06T17:12:03.205Z,92.53
2022-12-06T17:14:30.533Z,92.66
2022-12-06T17:17:00.489Z,93.24
2022-12-06T17:19:28.537Z,92.49
2022-12-06T17:21:56.179Z,93.45
2022-12-06T17:24:25.703Z,93.70
2022-12-06T17:26:54.393Z,92.71
2022-12-06T17:29:23.827Z,93.00
2022-12-06T17:31:52.162Z,93.43
2022-12-06T17:34:20.244Z,93.89
2022-12-06T17:36:48.143Z,94.88
2022-12-06T17:39:19.223Z,94.78
2022-12-06T17:42:05.350Z,94.06
2022-12-06T17:44:32.960Z,94.12
2022-12-06T17:47:00.335Z,93.12
2022-12-06T17:49:28.117Z,93.74
2022-12-06T17:51:55.566Z,94.09
2022-12-06T17:54:22.472Z,93.37
2022-12-06T17:56:51.549Z,93.38
2022-12-06T17:59:21.246Z,93.89
2022-12-06T18:04:36.811Z,93.29
2022-12-06T18:07:03.786Z,93.84
2022-12-06T18:09:30.681Z,94.66
2022-12-06T18:11:57.709Z,93.89
2022-12-06T18:14:24.618Z,92.95
2022-12-06T18:16:51.631Z,93.45
2022-12-06T18:19:21.138Z,93.53
2022-12-06T18:21:49.166Z,93.50
2022-12-06T18:24:22.613Z,93.11
2022-12-06T18:26:52.079Z,93.55
2022-12-06T18:29:22.099Z,92.42
2022-12-06T18:31:49.811Z,93.11
2022-12-06T18:34:17.453Z,91.98
2022-12-06T18:36:44.638Z,92.30
2022-12-06T18:39:15.872Z,92.01
2022-12-06T18:41:45.980Z,92.34
2022-12-06T18:44:13.932Z,91.55
2022-12-06T18:46:42.888Z,91.60
2022-12-06T18:49:12.367Z,92.02
2022-12-06T18:51:39.819Z,91.41
2022-12-06T18:54:08.255Z,92.61
2022-12-06T18:56:36.092Z,91.99
2022-12-06T18:59:06.612Z,92.05
2022-12-06T19:01:37.136Z,91.68
2022-12-06T19:04:05.913Z,91.39
2022-12-06T19:06:35.928Z,92.15
2022-12-06T19:09:22.659Z,92.66
2022-12-06T19:11:49.826Z,93.29
2022-12-06T19:14:17.048Z,92.92
2022-12-06T19:16:48.922Z,92.52
2022-12-06T19:19:22.756Z,91.96
2022-12-06T19:21:52.003Z,92.77
2022-12-06T19:24:22.377Z,92.51
2022-12-06T19:26:51.749Z,92.93
2022-12-06T19:29:19.017Z,92.31
2022-12-06T19:31:46.281Z,91.79
2022-12-06T19:34:19.431Z,92.50
2022-12-06T19:36:48.332Z,92.32
2022-12-06T19:39:15.266Z,92.15
2022-12-06T19:42:01.261Z,92.39
2022-12-06T19:44:29.039Z,92.46
2022-12-06T19:46:56.888Z,91.89
2022-12-06T19:49:25.875Z,92.86
2022-12-06T19:51:53.030Z,92.27
2022-12-06T19:54:22.965Z,92.65
2022-12-06T19:56:53.337Z,91.98
2022-12-06T19:59:25.848Z,92.71
2022-12-06T20:01:54.597Z,91.30
2022-12-06T20:04:24.116Z,92.07
2022-12-06T20:06:52.492Z,92.38
2022-12-06T20:09:22.254Z,92.00
2022-12-06T20:12:02.301Z,92.09
2022-12-06T20:14:46.476Z,91.92
2022-12-06T20:17:19.670Z,92.16
2022-12-06T20:19:46.868Z,92.45
2022-12-06T20:22:14.900Z,92.02
2022-12-06T20:24:42.331Z,92.27
2022-12-06T20:27:10.027Z,92.30
2022-12-06T20:29:36.922Z,92.44
2022-12-06T20:32:04.828Z,92.82
2022-12-06T20:34:34.970Z,92.51
2022-12-06T20:37:04.883Z,92.06
2022-12-06T20:39:38.541Z,92.69
2022-12-06T20:42:07.245Z,92.13
2022-12-06T20:44:35.801Z,92.36
2022-12-06T20:47:03.072Z,92.41
2022-12-06T20:49:30.208Z,92.50
2022-12-06T20:51:58.361Z,91.59
2022-12-06T20:54:25.483Z,92.41
2022-12-06T20:56:53.678Z,92.01
2022-12-06T20:59:21.538Z,92.97
2022-12-06T21:01:48.799Z,92.29
2022-12-06T21:04:16.796Z,92.85
2022-12-06T21:06:43.825Z,92.48
2022-12-06T21:09:11.027Z,92.06
2022-12-06T21:11:38.142Z,92.37
2022-12-06T21:14:06.151Z,92.19
2022-12-06T21:16:35.278Z,92.53
2022-12-06T21:19:05.202Z,92.52
2022-12-06T21:21:38.082Z,92.69
2022-12-06T21:24:07.654Z,93.10
2022-12-06T21:26:35.302Z,92.73
2022-12-06T21:29:02.675Z,92.95
2022-12-06T21:31:31.965Z,93.04
2022-12-06T21:33:59.444Z,93.08
2022-12-06T21:36:26.579Z,93.11
2022-12-06T21:38:54.396Z,92.64
2022-12-06T21:41:22.091Z,92.84
2022-12-06T21:43:49.332Z,92.63
2022-12-06T21:46:20.189Z,92.59
2022-12-06T21:48:51.674Z,92.20
2022-12-06T21:51:19.505Z,92.26
2022-12-06T21:53:46.433Z,92.90
2022-12-06T21:56:19.349Z,93.23
2022-12-06T21:58:47.541Z,92.57
2022-12-06T22:01:18.053Z,93.12
2022-12-06T22:03:48.703Z,93.00
2022-12-06T22:06:16.120Z,93.55
2022-12-06T22:08:44.637Z,93.35
2022-12-06T22:11:14.554Z,93.81
2022-12-06T22:13:42.835Z,93.67
2022-12-06T22:16:11.633Z,93.76
2022-12-06T22:18:45.510Z,93.91
2022-12-06T22:21:22.364Z,93.28
2022-12-06T22:23:49.269Z,93.30
2022-12-06T22:26:18.806Z,93.84
2022-12-06T22:28:46.726Z,94.49
2022-12-06T22:31:25.421Z,94.28
2022-12-06T22:33:53.545Z,93.38
2022-12-06T22:36:21.765Z,93.72
2022-12-06T22:38:50.695Z,93.91
2022-12-06T22:41:18.874Z,93.45
2022-12-06T22:43:46.309Z,94.12
2022-12-06T22:46:15.663Z,94.04
2022-12-06T22:48:43.658Z,94.35
2022-12-06T22:51:23.555Z,94.57
2022-12-06T22:53:56.348Z,93.83
2022-12-06T22:56:24.281Z,93.90
2022-12-06T22:58:59.417Z,94.38
2022-12-06T23:01:29.597Z,93.96
2022-12-06T23:03:58.885Z,94.70
2022-12-06T23:06:26.563Z,93.93
2022-12-06T23:08:54.475Z,94.32
2022-12-06T23:11:30.648Z,94.62
2022-12-06T23:13:58.378Z,93.96
2022-12-06T23:16:27.830Z,94.42
2022-12-06T23:18:55.453Z,94.55
2022-12-06T23:21:25.573Z,93.91
2022-12-06T23:23:58.486Z,94.72
2022-12-06T23:26:34.380Z,94.17
2022-12-06T23:29:01.694Z,93.82
2022-12-06T23:31:31.369Z,93.92
2022-12-06T23:34:03.979Z,94.03
2022-12-06T23:36:33.153Z,94.30
2022-12-06T23:39:00.384Z,93.64
2022-12-06T23:41:29.503Z,94.28
2022-12-06T23:43:57.739Z,93.61
2022-12-06T23:46:27.770Z,93.74
2022-12-06T23:48:56.103Z,93.44
2022-12-06T23:51:31.253Z,93.85
2022-12-06T23:53:59.643Z,93.28
2022-12-06T23:56:30.198Z,93.27
2022-12-06T23:58:57.781Z,93.57
